Time;durP1;ratioP1;P1;durP2;ratioP2;P2;SDS_P1;SDS_P2;PMS_P1;PMS_P2;Temp;Humidity;BMP_temperature;BMP_pressure;BME280_temperature;BME280_humidity;BME280_pressure;Samples;Min_cycle;Max_cycle;Signal;HPM_P1;HPM_P2
2022/01/24 00:01:51;;;;;;;13.35;7.88;;;4.80;99.90;;;;;;12395695;28;20081;-86
2022/01/24 00:07:53;;;;;;;6.78;3.92;;;4.80;99.90;;;;;;12379798;28;20608;-86
2022/01/24 00:14:34;;;;;;;8.40;3.92;;;4.90;99.90;;;;;;12382395;28;20088;-87
2022/01/24 00:26:47;;;;;;;6.43;3.67;;;5.10;99.90;;;;;;12415470;28;20602;-87
2022/01/24 00:32:49;;;;;;;7.18;4.88;;;5.10;99.90;;;;;;12424671;28;20046;-87
2022/01/24 00:38:50;;;;;;;9.77;6.03;;;5.10;99.90;;;;;;12397254;28;20082;-87
2022/01/24 00:45:03;;;;;;;9.15;6.10;;;5.10;99.90;;;;;;12394886;28;20566;-87
2022/01/24 00:57:26;;;;;;;10.38;6.78;;;5.00;99.90;;;;;;12392770;28;20160;-87
2022/01/24 01:03:27;;;;;;;11.38;6.55;;;5.00;99.90;;;;;;12383990;28;20057;-86
2022/01/24 01:22:11;;;;;;;11.63;7.13;;;4.90;99.90;;;;;;12391465;28;20046;-86
2022/01/24 01:28:14;;;;;;;13.38;7.63;;;4.90;99.90;;;;;;12393713;28;20054;-86
2022/01/24 01:34:48;;;;;;;11.68;7.65;;;4.90;99.90;;;;;;12400448;28;20088;-86
2022/01/24 01:59:40;;;;;;;9.95;6.53;;;4.90;99.90;;;;;;12400901;28;20062;-86
2022/01/24 02:05:42;;;;;;;10.48;6.13;;;4.90;99.90;;;;;;12385803;28;20073;-86
2022/01/24 02:11:44;;;;;;;10.02;5.90;;;4.90;99.90;;;;;;12384066;28;20617;-86
2022/01/24 02:18:07;;;;;;;10.63;6.63;;;4.90;99.90;;;;;;12385612;28;20081;-86
2022/01/24 02:24:12;;;;;;;10.38;6.38;;;4.90;99.90;;;;;;12385556;28;20047;-87
2022/01/24 02:36:35;;;;;;;9.57;6.80;;;4.90;99.90;;;;;;12398045;28;20053;-86
2022/01/24 02:48:57;;;;;;;10.43;7.07;;;4.90;99.90;;;;;;12402709;28;20137;-86
2022/01/24 02:54:59;;;;;;;11.52;6.90;;;4.90;99.90;;;;;;12383889;28;20165;-85
2022/01/24 03:01:06;;;;;;;9.00;6.18;;;4.90;99.90;;;;;;12390698;28;20629;-85
2022/01/24 03:07:08;;;;;;;10.43;5.63;;;4.90;99.90;;;;;;12382707;28;20053;-87
2022/01/24 03:19:29;;;;;;;11.05;6.40;;;4.80;99.90;;;;;;12396497;28;20064;-86
2022/01/24 03:25:31;;;;;;;13.73;8.40;;;4.70;99.90;;;;;;12389154;28;20483;-86
2022/01/24 03:31:35;;;;;;;11.75;8.20;;;4.80;99.90;;;;;;12388754;28;20128;-86
2022/01/24 03:37:37;;;;;;;12.40;8.23;;;4.70;99.90;;;;;;12394456;28;20149;-85
2022/01/24 03:43:39;;;;;;;13.75;8.55;;;4.80;99.90;;;;;;12392053;28;20145;-86
2022/01/24 03:49:48;;;;;;;13.73;8.48;;;4.70;99.90;;;;;;12392626;28;20121;-86
2022/01/24 03:55:50;;;;;;;15.88;8.60;;;4.70;99.90;;;;;;12442321;28;20054;-87
2022/01/24 04:01:52;;;;;;;13.82;8.15;;;4.70;99.90;;;;;;12430377;28;20069;-85
2022/01/24 04:07:54;;;;;;;13.02;7.45;;;4.70;99.90;;;;;;12420452;28;20216;-86
2022/01/24 04:14:11;;;;;;;11.23;7.50;;;4.70;99.90;;;;;;12415907;28;20068;-87
2022/01/24 04:26:35;;;;;;;12.15;7.45;;;4.80;99.90;;;;;;12402104;28;20100;-86
2022/01/24 04:32:36;;;;;;;10.82;6.75;;;4.70;99.90;;;;;;12387966;28;20081;-86
2022/01/24 04:38:38;;;;;;;12.60;6.85;;;4.70;99.90;;;;;;12381410;28;20124;-86
2022/01/24 04:57:32;;;;;;;8.30;5.50;;;4.70;99.90;;;;;;12391224;28;20059;-86
2022/01/24 05:03:34;;;;;;;7.47;5.38;;;4.80;99.90;;;;;;12375307;28;20053;-85
2022/01/24 05:09:41;;;;;;;9.02;5.63;;;4.80;99.90;;;;;;12377914;28;20128;-86
2022/01/24 05:28:06;;;;;;;6.55;4.35;;;4.80;99.90;;;;;;12401104;28;20113;-86
2022/01/24 05:34:07;;;;;;;8.60;5.35;;;4.90;99.90;;;;;;12388775;28;20121;-86
2022/01/24 05:40:10;;;;;;;6.72;4.43;;;4.90;99.90;;;;;;12396918;28;20046;-86
2022/01/24 05:46:12;;;;;;;7.18;4.72;;;4.90;99.90;;;;;;12385662;28;20056;-86
2022/01/24 05:52:14;;;;;;;8.55;4.70;;;4.80;99.90;;;;;;12375532;28;21188;-86
2022/01/24 05:58:16;;;;;;;9.25;6.03;;;4.80;99.90;;;;;;12394314;28;20133;-87
2022/01/24 06:04:19;;;;;;;7.53;5.32;;;4.80;99.90;;;;;;12380618;28;20054;-86
2022/01/24 06:10:21;;;;;;;7.70;5.15;;;4.80;99.90;;;;;;12378334;28;20589;-86
2022/01/24 06:16:22;;;;;;;10.02;5.40;;;4.80;99.90;;;;;;12401845;28;20137;-86
2022/01/24 06:22:25;;;;;;;7.10;5.05;;;4.80;99.90;;;;;;12399928;28;20061;-86
2022/01/24 06:28:27;;;;;;;6.75;4.78;;;4.80;99.90;;;;;;12398220;28;20050;-87
2022/01/24 06:34:29;;;;;;;6.68;5.00;;;4.80;99.90;;;;;;12387461;28;20081;-87
2022/01/24 06:40:31;;;;;;;7.07;4.70;;;4.80;99.90;;;;;;12391148;28;20057;-87
2022/01/24 06:46:33;;;;;;;7.43;5.45;;;4.80;99.90;;;;;;12384448;28;20057;-86
2022/01/24 06:52:35;;;;;;;7.97;4.85;;;4.80;99.90;;;;;;12399711;28;20558;-87
2022/01/24 06:58:37;;;;;;;5.80;4.50;;;4.80;99.90;;;;;;12394319;28;20072;-86
2022/01/24 07:04:41;;;;;;;7.88;4.97;;;4.70;99.90;;;;;;12388162;28;20046;-87
2022/01/24 07:10:43;;;;;;;8.23;5.45;;;4.80;99.90;;;;;;12375757;28;20054;-87
2022/01/24 07:17:11;;;;;;;6.88;4.78;;;4.70;99.90;;;;;;12382650;28;20140;-87
2022/01/24 07:23:10;;;;;;;7.70;5.63;;;4.70;99.90;;;;;;12387133;28;20193;-87
2022/01/24 07:29:17;;;;;;;6.18;4.50;;;4.70;99.90;;;;;;12384159;28;20052;-87
2022/01/24 07:35:19;;;;;;;7.47;5.43;;;4.70;99.90;;;;;;12372037;28;20793;-87
2022/01/24 07:41:27;;;;;;;8.05;4.85;;;4.70;99.90;;;;;;12372412;28;20578;-87
2022/01/24 07:47:29;;;;;;;6.88;5.18;;;4.70;99.90;;;;;;12378028;28;20308;-87
2022/01/24 07:53:31;;;;;;;5.63;4.38;;;4.70;99.90;;;;;;12372259;28;20055;-87
2022/01/24 07:59:52;;;;;;;6.32;4.95;;;4.70;99.90;;;;;;12380348;28;20057;-87
2022/01/24 08:05:55;;;;;;;5.53;4.20;;;4.80;99.90;;;;;;12385072;28;20499;-86
2022/01/24 08:11:57;;;;;;;7.03;4.28;;;4.70;99.90;;;;;;12374766;28;20073;-86
2022/01/24 08:17:59;;;;;;;5.60;4.00;;;4.70;99.90;;;;;;12383669;28;20473;-86
2022/01/24 08:24:02;;;;;;;6.45;4.68;;;4.70;99.90;;;;;;12383106;28;20046;-86
2022/01/24 08:30:07;;;;;;;9.20;5.85;;;4.70;99.90;;;;;;12373578;28;20057;-86
2022/01/24 08:36:09;;;;;;;6.32;4.90;;;4.70;99.90;;;;;;12368945;28;20073;-87
2022/01/24 08:42:30;;;;;;;5.90;4.50;;;4.70;99.90;;;;;;12386551;28;20493;-87
2022/01/24 08:48:32;;;;;;;6.28;4.78;;;4.80;99.90;;;;;;12389042;28;20058;-86
2022/01/24 08:54:34;;;;;;;6.40;4.60;;;4.80;99.90;;;;;;12419658;28;20139;-86
2022/01/24 09:00:37;;;;;;;6.80;4.28;;;4.70;99.90;;;;;;12380222;28;20060;-87
2022/01/24 09:06:39;;;;;;;7.45;4.63;;;4.80;99.90;;;;;;12382143;28;20073;-87
2022/01/24 09:12:41;;;;;;;6.05;4.60;;;4.80;99.90;;;;;;12387632;28;20125;-87
2022/01/24 09:18:43;;;;;;;6.50;4.80;;;4.80;99.90;;;;;;12376505;28;20092;-87
2022/01/24 09:24:45;;;;;;;6.78;4.88;;;4.80;99.90;;;;;;12381557;28;20042;-87
2022/01/24 09:30:47;;;;;;;6.93;5.10;;;4.90;99.90;;;;;;12371447;28;20631;-87
2022/01/24 09:36:49;;;;;;;6.07;4.80;;;4.90;99.90;;;;;;12367428;28;20082;-86
2022/01/24 09:42:52;;;;;;;6.30;4.47;;;4.90;99.90;;;;;;12369903;28;20064;-86
2022/01/24 09:48:56;;;;;;;6.88;5.35;;;4.90;99.90;;;;;;12395098;28;20085;-87
2022/01/24 09:54:57;;;;;;;6.68;5.00;;;4.90;99.90;;;;;;12373476;28;20053;-86
2022/01/24 10:01:01;;;;;;;7.18;5.10;;;4.90;99.90;;;;;;12394432;28;20084;-87
2022/01/24 10:07:12;;;;;;;6.63;5.05;;;4.90;99.90;;;;;;12402545;28;20062;-87
2022/01/24 10:19:55;;;;;;;6.53;4.97;;;4.90;99.90;;;;;;12364225;28;20049;-88
2022/01/24 10:26:01;;;;;;;8.40;4.90;;;4.90;99.90;;;;;;12391264;28;20042;-86
2022/01/24 10:32:03;;;;;;;7.82;4.68;;;4.90;99.90;;;;;;12394263;28;20069;-87
2022/01/24 10:38:44;;;;;;;7.03;4.53;;;4.80;99.90;;;;;;12384577;28;20050;-88
2022/01/24 10:44:50;;;;;;;7.07;4.95;;;4.80;99.90;;;;;;12399528;28;20477;-87
2022/01/24 10:51:16;;;;;;;6.57;4.85;;;4.90;99.90;;;;;;12388285;28;20057;-87
2022/01/24 10:57:28;;;;;;;7.13;4.80;;;4.90;99.90;;;;;;12384152;28;20045;-87
2022/01/24 11:03:30;;;;;;;6.82;4.90;;;4.90;99.90;;;;;;12396092;28;20046;-87
2022/01/24 11:09:36;;;;;;;6.38;5.03;;;4.90;99.90;;;;;;12381543;28;20051;-87
2022/01/24 11:15:42;;;;;;;5.78;4.70;;;4.90;99.90;;;;;;12399135;28;20906;-87
2022/01/24 11:21:45;;;;;;;5.72;4.40;;;5.00;99.90;;;;;;12394217;28;20617;-86
2022/01/24 11:27:48;;;;;;;5.70;4.47;;;4.90;99.90;;;;;;12394067;28;20077;-87
2022/01/24 11:34:20;;;;;;;5.80;4.30;;;4.90;99.90;;;;;;12380235;28;20041;-86
2022/01/24 11:40:23;;;;;;;6.05;4.63;;;5.00;99.90;;;;;;12389776;28;20061;-86
2022/01/24 11:46:55;;;;;;;7.13;4.80;;;5.10;99.90;;;;;;12384584;28;20646;-87
2022/01/24 11:52:57;;;;;;;6.90;5.10;;;5.20;99.90;;;;;;12386210;28;20038;-87
2022/01/24 11:59:22;;;;;;;7.53;5.50;;;5.10;99.90;;;;;;12388103;28;20149;-87
2022/01/24 12:05:41;;;;;;;;;;;5.10;99.90;;;;;;12401067;28;20049;-88
2022/01/24 12:11:56;;;;;;;5.68;4.57;;;5.10;99.90;;;;;;12415366;28;19925;-86
2022/01/24 12:18:21;;;;;;;6.53;4.43;;;5.20;99.90;;;;;;12387204;28;20046;-86
2022/01/24 12:24:42;;;;;;;6.25;4.80;;;5.10;99.90;;;;;;12401062;28;20050;-87
2022/01/24 12:31:22;;;;;;;6.20;5.30;;;5.10;99.90;;;;;;12390186;28;20058;-87
2022/01/24 12:37:31;;;;;;;6.85;5.38;;;5.10;99.90;;;;;;12403309;28;20042;-86
2022/01/24 12:43:51;;;;;;;6.57;5.15;;;5.00;99.90;;;;;;12409238;28;20042;-86
2022/01/24 12:49:55;;;;;;;7.63;5.63;;;5.10;99.90;;;;;;12399349;28;20050;-87
2022/01/24 12:56:04;;;;;;;7.10;6.07;;;5.00;99.90;;;;;;12416391;28;20054;-87
2022/01/24 13:02:08;;;;;;;8.93;6.20;;;5.00;99.90;;;;;;12410593;28;20761;-87
2022/01/24 13:08:16;;;;;;;8.70;6.85;;;4.90;99.90;;;;;;12406195;28;20054;-86
2022/01/24 13:14:44;;;;;;;9.00;5.65;;;4.90;99.90;;;;;;12381036;28;20073;-87
2022/01/24 13:21:07;;;;;;;7.95;6.15;;;4.90;99.90;;;;;;12392165;28;20081;-86
2022/01/24 13:27:09;;;;;;;7.93;6.03;;;4.90;99.90;;;;;;12407299;28;20169;-87
2022/01/24 13:33:14;;;;;;;7.75;5.65;;;5.00;99.90;;;;;;12422429;28;20057;-87
2022/01/24 13:39:16;;;;;;;7.68;6.20;;;4.90;99.90;;;;;;12397315;28;20494;-87
2022/01/24 13:45:18;;;;;;;7.18;5.60;;;4.80;99.90;;;;;;12401431;28;20046;-87
2022/01/24 13:51:24;;;;;;;7.60;5.68;;;4.80;99.90;;;;;;12400643;28;20049;-87
2022/01/24 13:57:27;;;;;;;10.05;6.55;;;4.90;99.90;;;;;;12383921;28;20602;-87
2022/01/24 14:03:29;;;;;;;7.32;6.07;;;5.00;99.90;;;;;;12415614;28;20033;-87
2022/01/24 14:09:34;;;;;;;10.52;6.65;;;5.00;99.90;;;;;;12398090;28;20112;-86
2022/01/24 14:15:55;;;;;;;8.77;6.55;;;4.90;99.90;;;;;;12414033;28;20392;-87
2022/01/24 14:22:16;;;;;;;8.88;6.82;;;4.80;99.90;;;;;;12397710;28;20516;-87
2022/01/24 14:28:22;;;;;;;9.23;6.85;;;4.70;99.90;;;;;;12374888;28;20498;-86
2022/01/24 14:34:28;;;;;;;8.35;7.00;;;4.70;99.90;;;;;;12388170;28;20046;-86
2022/01/24 14:40:56;;;;;;;8.75;6.57;;;4.60;99.90;;;;;;12424872;28;20045;-87
2022/01/24 14:46:58;;;;;;;8.75;6.55;;;4.70;99.90;;;;;;12401080;28;20081;-87
2022/01/24 14:53:04;;;;;;;7.90;5.82;;;4.80;99.90;;;;;;12416404;28;20312;-86
2022/01/24 14:59:07;;;;;;;7.32;5.80;;;4.80;99.90;;;;;;12415924;28;20495;-87
2022/01/24 15:05:08;;;;;;;8.38;6.38;;;4.80;99.90;;;;;;12400552;28;20042;-87
2022/01/24 15:11:13;;;;;;;8.38;6.28;;;4.80;99.90;;;;;;12422245;28;20049;-87
2022/01/24 15:29:37;;;;;;;7.65;6.22;;;4.60;99.90;;;;;;12399507;28;20161;-86
2022/01/24 15:35:39;;;;;;;9.25;6.70;;;4.60;99.90;;;;;;12394403;28;20054;-86
2022/01/24 15:42:10;;;;;;;9.13;6.78;;;4.60;99.90;;;;;;12399284;28;20107;-87
2022/01/24 15:48:07;;;;;;;13.00;8.05;;;4.50;99.90;;;;;;12391157;28;20042;-86
2022/01/24 15:54:11;;;;;;;9.00;7.13;;;4.50;99.90;;;;;;12382389;28;20070;-86
2022/01/24 16:00:22;;;;;;;9.23;7.03;;;4.50;99.90;;;;;;12378138;28;20176;-86
2022/01/24 16:06:25;;;;;;;9.95;7.20;;;4.50;99.90;;;;;;12388105;28;20042;-86
2022/01/24 16:12:27;;;;;;;8.52;7.10;;;4.50;99.90;;;;;;12386009;28;20076;-86
2022/01/24 16:18:30;;;;;;;9.75;7.20;;;4.50;99.90;;;;;;12388718;28;20161;-86
2022/01/24 16:30:37;;;;;;;8.82;7.35;;;4.40;99.90;;;;;;12395648;28;20140;-86
2022/01/24 16:36:39;;;;;;;11.15;7.63;;;4.40;99.90;;;;;;12388777;28;20060;-86
2022/01/24 16:43:05;;;;;;;13.60;7.18;;;4.40;99.90;;;;;;12375660;28;20128;-86
2022/01/24 16:49:03;;;;;;;10.65;8.15;;;4.40;99.90;;;;;;12394524;28;20084;-87
2022/01/24 16:55:07;;;;;;;14.25;8.68;;;4.30;99.90;;;;;;12383368;28;20124;-87
2022/01/24 17:01:09;;;;;;;10.57;8.23;;;4.30;99.90;;;;;;12380501;28;20056;-87
2022/01/24 17:07:11;;;;;;;10.82;8.80;;;4.30;99.90;;;;;;12393667;28;20038;-86
2022/01/24 17:13:14;;;;;;;10.65;8.18;;;4.30;99.90;;;;;;12396550;28;20747;-87
2022/01/24 17:19:17;;;;;;;11.02;8.20;;;4.40;99.90;;;;;;12384839;28;20046;-86
2022/01/24 17:25:20;;;;;;;14.57;9.17;;;4.30;99.90;;;;;;12393214;28;20050;-86
2022/01/24 17:31:22;;;;;;;11.98;9.68;;;4.30;99.90;;;;;;12375457;28;20080;-87
2022/01/24 17:37:24;;;;;;;11.48;9.32;;;4.30;99.90;;;;;;12398361;28;20893;-86
2022/01/24 17:43:27;;;;;;;13.85;9.93;;;4.30;99.90;;;;;;12393140;28;20046;-86
2022/01/24 17:49:29;;;;;;;13.23;10.45;;;4.20;99.90;;;;;;12378395;28;20136;-86
2022/01/24 17:55:31;;;;;;;13.85;11.07;;;4.20;99.90;;;;;;12389324;28;20069;-86
2022/01/24 18:01:33;;;;;;;14.52;11.02;;;4.30;99.90;;;;;;12388647;28;20794;-86
2022/01/24 18:07:36;;;;;;;17.92;11.13;;;4.30;99.90;;;;;;12388475;28;20410;-86
2022/01/24 18:13:39;;;;;;;19.25;12.85;;;4.20;99.90;;;;;;12392593;28;20184;-87
2022/01/24 18:19:42;;;;;;;;;;;4.20;99.90;;;;;;12399237;28;20054;-86
2022/01/24 18:25:44;;;;;;;17.13;11.95;;;4.20;99.90;;;;;;12390532;28;20726;-86
2022/01/24 18:31:46;;;;;;;14.50;11.48;;;4.20;99.90;;;;;;12407269;28;20057;-85
2022/01/24 18:37:48;;;;;;;18.27;12.57;;;4.20;99.90;;;;;;12408957;28;20061;-86
2022/01/24 18:43:50;;;;;;;20.70;14.48;;;4.20;99.90;;;;;;12388976;28;20099;-86
2022/01/24 18:49:52;;;;;;;17.80;13.75;;;4.20;99.90;;;;;;12388108;28;20045;-87
2022/01/24 18:55:54;;;;;;;16.45;12.68;;;4.10;99.90;;;;;;12376212;28;20464;-87
2022/01/24 19:01:59;;;;;;;17.27;13.02;;;4.10;99.90;;;;;;12392014;28;20132;-85
2022/01/24 19:08:07;;;;;;;24.05;15.88;;;4.00;99.90;;;;;;12399636;28;20057;-86
2022/01/24 19:14:09;;;;;;;18.52;14.00;;;4.00;99.90;;;;;;12391836;28;20157;-87
2022/01/24 19:26:16;;;;;;;24.63;17.55;;;4.10;99.90;;;;;;12395184;28;20531;-85
2022/01/24 19:32:19;;;;;;;25.55;15.48;;;4.10;99.90;;;;;;12390293;28;20525;-86
2022/01/24 19:38:21;;;;;;;21.55;16.42;;;4.20;99.90;;;;;;12400540;28;20051;-87
2022/01/24 19:44:26;;;;;;;22.58;16.90;;;4.20;99.90;;;;;;12382917;28;20136;-86
2022/01/24 19:50:32;;;;;;;;;;;4.10;99.90;;;;;;12388119;28;20141;-86
2022/01/24 19:56:43;;;;;;;23.38;16.77;;;4.10;99.90;;;;;;12380053;28;19951;-86
2022/01/24 20:02:45;;;;;;;23.73;17.83;;;4.00;99.90;;;;;;12397382;28;20520;-86
2022/01/24 20:08:47;;;;;;;24.92;17.25;;;4.00;99.90;;;;;;12383570;28;20046;-86
2022/01/24 20:14:49;;;;;;;27.67;18.95;;;4.10;99.90;;;;;;12387998;28;20104;-87
2022/01/24 20:20:52;;;;;;;27.42;18.17;;;4.00;99.90;;;;;;12398485;28;20159;-87
2022/01/24 20:26:54;;;;;;;25.05;17.73;;;4.10;99.90;;;;;;12376423;28;20050;-87
2022/01/24 20:32:56;;;;;;;24.77;16.92;;;4.10;99.90;;;;;;12376038;28;20209;-85
2022/01/24 20:38:58;;;;;;;25.30;18.08;;;4.10;99.90;;;;;;12379510;28;20176;-86
2022/01/24 20:45:00;;;;;;;25.83;17.90;;;4.10;99.90;;;;;;12392980;28;20042;-86
2022/01/24 20:51:02;;;;;;;27.35;18.52;;;4.10;99.90;;;;;;12382009;28;20095;-86
2022/01/24 20:57:04;;;;;;;26.23;17.98;;;4.00;99.90;;;;;;12397181;28;20109;-86
2022/01/24 21:03:07;;;;;;;28.85;18.88;;;4.00;99.90;;;;;;12373891;28;20046;-86
2022/01/24 21:09:15;;;;;;;25.95;17.55;;;4.00;99.90;;;;;;12372810;28;20057;-87
2022/01/24 21:15:17;;;;;;;29.55;19.08;;;4.00;99.90;;;;;;12383956;28;20129;-86
2022/01/24 21:21:20;;;;;;;28.42;18.92;;;3.90;99.90;;;;;;12382728;28;20715;-86
2022/01/24 21:27:22;;;;;;;27.67;19.10;;;4.00;99.90;;;;;;12374722;28;20076;-87
2022/01/24 21:33:28;;;;;;;30.77;19.92;;;4.00;99.90;;;;;;12372105;28;20073;-86
2022/01/24 21:39:31;;;;;;;27.98;18.85;;;4.00;99.90;;;;;;12383518;28;20069;-86
2022/01/24 21:45:35;;;;;;;29.30;19.38;;;4.00;99.90;;;;;;12384010;28;20529;-86
2022/01/24 21:51:37;;;;;;;26.48;18.67;;;4.00;99.90;;;;;;12384335;28;20083;-87
2022/01/24 21:57:39;;;;;;;31.10;19.55;;;3.90;99.90;;;;;;12379553;28;20073;-86
2022/01/24 22:03:41;;;;;;;29.15;19.42;;;3.90;99.90;;;;;;12373496;28;20193;-87
2022/01/24 22:09:43;;;;;;;30.45;18.33;;;4.00;99.90;;;;;;12393799;28;20498;-86
2022/01/24 22:15:48;;;;;;;28.77;19.30;;;4.10;99.90;;;;;;12386786;28;20052;-87
2022/01/24 22:21:50;;;;;;;29.52;19.67;;;4.00;99.90;;;;;;12393159;28;20487;-86
2022/01/24 22:27:52;;;;;;;28.75;20.05;;;4.00;99.90;;;;;;12387710;28;20045;-86
2022/01/24 22:33:56;;;;;;;30.92;19.38;;;4.00;99.90;;;;;;12384388;28;20050;-86
2022/01/24 22:39:58;;;;;;;30.97;19.17;;;4.00;99.90;;;;;;12389318;28;20137;-86
2022/01/24 22:46:01;;;;;;;31.73;18.77;;;4.00;99.90;;;;;;12389649;28;20057;-87
2022/01/24 22:52:06;;;;;;;29.48;18.58;;;4.00;99.90;;;;;;12398421;28;20630;-87
2022/01/24 22:58:08;;;;;;;;;;;4.00;99.90;;;;;;12399680;28;20107;-87
2022/01/24 23:04:10;;;;;;;30.50;18.10;;;4.00;99.90;;;;;;12416424;28;19918;-86
2022/01/24 23:10:34;;;;;;;28.83;18.50;;;3.90;99.90;;;;;;12393709;28;20084;-87
2022/01/24 23:22:57;;;;;;;31.00;17.70;;;4.00;99.90;;;;;;12417022;28;20046;-86
2022/01/24 23:29:08;;;;;;;34.85;18.05;;;4.00;99.90;;;;;;12408377;28;20953;-86
2022/01/24 23:41:32;;;;;;;33.10;17.27;;;3.90;99.90;;;;;;12411559;28;20092;-87
2022/01/24 23:47:35;;;;;;;31.52;17.15;;;3.90;99.90;;;;;;12404636;28;20590;-86
2022/01/24 23:53:37;;;;;;;32.40;18.08;;;4.00;99.90;;;;;;12391839;28;20050;-86
